Time;durP1;ratioP1;P1;durP2;ratioP2;P2;SDS_P1;SDS_P2;PMS_P1;PMS_P2;Temp;Humidity;BMP_temperature;BMP_pressure;BME280_temperature;BME280_humidity;BME280_pressure;Samples;Min_cycle;Max_cycle;Signal;HPM_P1;HPM_P2
2024/02/27 00:01:30;;;;;;;;;;;;;;;26.57;37.58;93002.41;5037118;28;9092;-56
2024/02/27 00:03:59;;;;;;;;;;;;;;;26.62;38.33;93001.50;5043884;28;7286;-57
2024/02/27 00:06:25;;;;;;;;;;;;;;;26.60;37.88;93007.53;5044802;28;8762;-57
2024/02/27 00:08:50;;;;;;;;;;;;;;;26.60;38.08;93010.28;5009791;28;7251;-57
2024/02/27 00:11:26;;;;;;;;;;;;;;;26.58;38.12;93007.34;5014414;28;7011;-57
2024/02/27 00:14:11;;;;;;;;;;;;;;;26.58;38.14;93006.59;5033932;28;7157;-42
2024/02/27 00:16:38;;;;;;;;;;;;;;;26.57;38.31;92999.63;5036260;28;9015;-42
2024/02/27 00:19:07;;;;;;;;;;;;;;;26.56;38.27;92998.16;5044301;28;9070;-42
2024/02/27 00:21:37;;;;;;;;;;;;;;;26.55;38.37;92991.19;5032554;28;7262;-42
2024/02/27 00:24:06;;;;;;;;;;;;;;;26.55;37.82;92996.69;5015431;28;7045;-43
2024/02/27 00:26:32;;;;;;;;;;;;;;;26.57;37.81;92999.63;5050328;28;7037;-43
2024/02/27 00:29:12;;;;;;;;;;;;;;;26.57;37.88;92994.88;5075535;28;9003;-42
2024/02/27 00:31:39;;;;;;;;;;;;;;;26.56;38.32;92987.13;5075817;28;7039;-43
2024/02/27 00:34:08;;;;;;;;;;;;;;;26.57;37.76;92991.38;5070925;28;7445;-42
2024/02/27 00:36:38;;;;;;;;;;;;;;;26.57;37.56;92988.59;5058584;28;7324;-43
2024/02/27 00:39:51;;;;;;;;;;;;;;;26.58;38.10;92984.53;5057600;28;7019;-42
2024/02/27 00:42:18;;;;;;;;;;;;;;;26.57;38.13;92985.84;4996838;28;9380;-42
2024/02/27 00:45:00;;;;;;;;;;;;;;;26.56;38.00;92985.09;5008452;28;7072;-42
2024/02/27 00:47:44;;;;;;;;;;;;;;;26.57;37.37;92985.84;5014417;28;9156;-43
2024/02/27 00:50:21;;;;;;;;;;;;;;;26.54;37.79;92978.66;5012925;28;7026;-42
2024/02/27 00:52:49;;;;;;;;;;;;;;;26.56;37.77;92989.88;5012440;28;7283;-41
2024/02/27 00:55:24;;;;;;;;;;;;;;;26.56;37.80;92990.63;4993723;28;7294;-42
2024/02/27 00:58:05;;;;;;;;;;;;;;;26.57;37.89;92997.63;4993706;28;8110;-42
2024/02/27 01:00:44;;;;;;;;;;;;;;;26.55;37.43;93000.19;5009229;28;9128;-42
2024/02/27 01:03:14;;;;;;;;;;;;;;;26.55;37.77;92999.44;5013649;28;7282;-42
2024/02/27 01:05:40;;;;;;;;;;;;;;;26.52;37.39;92998.53;4996677;28;7030;-39
2024/02/27 01:08:05;;;;;;;;;;;;;;;26.54;37.78;92995.22;4993902;28;7188;-38
2024/02/27 01:10:31;;;;;;;;;;;;;;;26.55;37.77;92994.69;5011405;28;9443;-38
2024/02/27 01:12:59;;;;;;;;;;;;;;;26.53;37.63;92991.00;5001754;28;7232;-38
2024/02/27 01:15:25;;;;;;;;;;;;;;;26.57;38.00;93005.16;4989139;28;6992;-38
2024/02/27 01:17:51;;;;;;;;;;;;;;;26.53;37.57;93002.03;5002484;28;8719;-39
2024/02/27 01:20:30;;;;;;;;;;;;;;;26.52;37.75;93001.28;5072692;28;7517;-39
2024/02/27 01:22:58;;;;;;;;;;;;;;;26.53;38.00;93005.53;5061299;28;6902;-38
2024/02/27 01:25:31;;;;;;;;;;;;;;;26.54;38.03;93001.47;5073874;28;7238;-38
2024/02/27 01:27:59;;;;;;;;;;;;;;;26.53;37.99;93000.00;5059188;28;9230;-38
2024/02/27 01:30:27;;;;;;;;;;;;;;;26.52;37.87;93009.56;5068880;28;7873;-38
2024/02/27 01:32:53;;;;;;;;;;;;;;;26.53;37.91;93007.53;5056364;28;8995;-38
2024/02/27 01:35:19;;;;;;;;;;;;;;;26.53;37.26;92997.25;5070637;28;7869;-38
2024/02/27 01:37:56;;;;;;;;;;;;;;;26.47;37.51;92988.41;5076696;28;7022;-38
2024/02/27 01:40:50;;;;;;;;;;;;;;;26.53;37.51;92999.28;5093755;28;8998;-38
2024/02/27 01:43:41;;;;;;;;;;;;;;;26.53;37.75;92991.00;5060631;28;7825;-38
2024/02/27 01:50:17;;;;;;;;;;;;;;;26.55;37.49;92985.66;5080736;28;7544;-38
2024/02/27 01:52:52;;;;;;;;;;;;;;;26.51;37.41;92988.78;5063508;28;9658;-38
2024/02/27 01:55:23;;;;;;;;;;;;;;;26.53;37.65;92993.75;5074335;28;9055;-38
2024/02/27 01:58:17;;;;;;;;;;;;;;;26.51;37.61;92996.31;5073121;28;9367;-38
2024/02/27 02:00:47;;;;;;;;;;;;;;;26.51;37.68;93001.84;5045395;28;7205;-38
2024/02/27 02:03:21;;;;;;;;;;;;;;;26.51;37.86;93004.59;5056973;28;8674;-38
2024/02/27 02:05:48;;;;;;;;;;;;;;;26.52;37.76;93015.06;5069525;28;7109;-38
2024/02/27 02:08:17;;;;;;;;;;;;;;;26.51;37.67;93024.63;5077011;28;9443;-38
2024/02/27 02:10:43;;;;;;;;;;;;;;;26.52;38.07;93025.34;5058275;28;7054;-38
2024/02/27 02:13:10;;;;;;;;;;;;;;;26.53;37.37;93024.09;5055667;28;9097;-38
2024/02/27 02:15:36;;;;;;;;;;;;;;;26.52;37.58;93030.88;5056122;28;7317;-38
2024/02/27 02:18:03;;;;;;;;;;;;;;;26.53;37.37;93037.88;5047094;28;9450;-38
2024/02/27 02:20:29;;;;;;;;;;;;;;;26.53;37.76;93027.59;5076826;28;7182;-38
2024/02/27 02:22:55;;;;;;;;;;;;;;;26.55;37.29;93021.50;5077863;28;7615;-38
2024/02/27 02:25:21;;;;;;;;;;;;;;;26.54;37.08;93036.56;5078234;28;9444;-38
2024/02/27 02:27:49;;;;;;;;;;;;;;;26.52;37.60;93045.41;5065568;28;8167;-38
2024/02/27 02:30:23;;;;;;;;;;;;;;;26.52;37.61;93033.63;5082443;28;7632;-38
2024/02/27 02:33:00;;;;;;;;;;;;;;;26.51;37.60;93032.88;5059543;28;9404;-38
2024/02/27 02:35:34;;;;;;;;;;;;;;;26.53;37.53;93032.34;5060746;28;7084;-55
2024/02/27 02:38:01;;;;;;;;;;;;;;;26.51;36.91;93035.66;5091672;28;7232;-56
2024/02/27 02:40:35;;;;;;;;;;;;;;;26.51;37.76;93037.69;5085699;28;9617;-54
2024/02/27 02:43:16;;;;;;;;;;;;;;;26.51;37.52;93038.41;5069260;28;7272;-55
2024/02/27 02:45:43;;;;;;;;;;;;;;;26.53;37.38;93043.38;5075931;28;9691;-55
2024/02/27 02:48:12;;;;;;;;;;;;;;;26.50;37.62;93038.97;5055255;28;9039;-55
2024/02/27 02:50:49;;;;;;;;;;;;;;;26.54;37.53;93042.09;5097177;28;7085;-53
2024/02/27 02:53:18;;;;;;;;;;;;;;;26.53;37.46;93046.16;5059879;28;8335;-53
2024/02/27 02:55:50;;;;;;;;;;;;;;;26.51;37.64;93043.19;5068463;28;9425;-54
2024/02/27 02:58:27;;;;;;;;;;;;;;;26.50;37.16;93044.47;5077408;28;7275;-53
2024/02/27 03:00:56;;;;;;;;;;;;;;;26.53;37.37;93048.91;5077240;28;8995;-55
2024/02/27 03:03:52;;;;;;;;;;;;;;;26.54;37.43;93053.13;5058157;28;7241;-55
2024/02/27 03:06:17;;;;;;;;;;;;;;;26.52;37.26;93053.69;5014921;28;7271;-55
2024/02/27 03:08:45;;;;;;;;;;;;;;;26.52;37.07;93052.94;5015076;28;7271;-55
2024/02/27 03:11:15;;;;;;;;;;;;;;;26.51;37.53;93057.00;5022951;28;8835;-54
2024/02/27 03:13:42;;;;;;;;;;;;;;;26.50;37.59;93050.72;4992482;28;7218;-53
2024/02/27 03:16:18;;;;;;;;;;;;;;;26.50;37.30;93050.00;5003486;28;8747;-54
2024/02/27 03:18:44;;;;;;;;;;;;;;;26.48;37.45;93052.56;5004200;28;9359;-53
2024/02/27 03:21:47;;;;;;;;;;;;;;;26.47;37.46;93051.09;5005421;28;7536;-54
2024/02/27 03:24:15;;;;;;;;;;;;;;;26.47;37.50;93045.59;4938565;28;7309;-54
2024/02/27 03:26:51;;;;;;;;;;;;;;;26.47;36.96;93040.06;4931221;28;7506;-55
2024/02/27 03:29:42;;;;;;;;;;;;;;;26.50;37.45;93050.00;4928535;28;8738;-55
2024/02/27 03:32:40;;;;;;;;;;;;;;;26.47;37.81;93051.81;4957124;28;9521;-55
2024/02/27 03:35:36;;;;;;;;;;;;;;;26.49;37.18;93054.03;4938541;28;6977;-55
2024/02/27 03:38:08;;;;;;;;;;;;;;;26.47;37.47;93064.88;4933323;29;7022;-55
2024/02/27 03:40:38;;;;;;;;;;;;;;;26.48;37.47;93072.59;4918598;29;7146;-55
2024/02/27 03:43:51;;;;;;;;;;;;;;;26.47;37.02;93084.19;4940471;28;7559;-54
2024/02/27 03:46:31;;;;;;;;;;;;;;;26.45;37.48;93087.47;4916652;29;7234;-38
2024/02/27 03:48:58;;;;;;;;;;;;;;;26.47;37.31;93098.69;4907041;29;8824;-38
2024/02/27 03:51:25;;;;;;;;;;;;;;;26.46;37.28;93094.47;4915828;29;9020;-38
2024/02/27 03:53:52;;;;;;;;;;;;;;;26.47;37.25;93101.44;4896808;29;9714;-38
2024/02/27 03:56:48;;;;;;;;;;;;;;;26.47;37.63;93106.25;4915397;29;8706;-38
2024/02/27 03:59:15;;;;;;;;;;;;;;;26.44;37.63;93110.09;4865896;29;7035;-38
2024/02/27 04:01:42;;;;;;;;;;;;;;;26.43;37.80;93120.38;4880533;29;7303;-38
2024/02/27 04:04:12;;;;;;;;;;;;;;;26.43;37.01;93125.16;4879508;29;7182;-38
2024/02/27 04:06:38;;;;;;;;;;;;;;;26.45;37.59;93139.13;4881104;29;7118;-38
2024/02/27 04:09:05;;;;;;;;;;;;;;;26.44;37.29;93143.91;4861891;29;7186;-39
2024/02/27 04:11:40;;;;;;;;;;;;;;;26.44;37.02;93146.66;4878817;29;9060;-38
2024/02/27 04:14:08;;;;;;;;;;;;;;;26.45;37.42;93156.41;4893400;29;7312;-38
2024/02/27 04:16:44;;;;;;;;;;;;;;;26.43;37.37;93155.47;4914743;29;7020;-38
2024/02/27 04:19:12;;;;;;;;;;;;;;;26.43;37.43;93161.72;4922173;29;9516;-38
2024/02/27 04:21:48;;;;;;;;;;;;;;;26.43;37.40;93167.25;4920771;28;8780;-38
2024/02/27 04:24:23;;;;;;;;;;;;;;;26.42;37.29;93157.50;4977092;28;9107;-38
2024/02/27 04:26:50;;;;;;;;;;;;;;;26.42;37.45;93154.00;4997616;28;9044;-38
2024/02/27 04:29:45;;;;;;;;;;;;;;;26.44;37.59;93156.97;5000315;28;7202;-39
2024/02/27 04:32:20;;;;;;;;;;;;;;;26.44;37.56;93154.94;4974606;28;9407;-38
2024/02/27 04:34:48;;;;;;;;;;;;;;;26.45;37.20;93156.41;4974666;28;7890;-38
2024/02/27 04:37:52;;;;;;;;;;;;;;;26.46;37.71;93155.13;5011555;28;7628;-38
2024/02/27 04:40:32;;;;;;;;;;;;;;;26.44;37.34;93152.19;4944093;28;7272;-38
2024/02/27 04:43:00;;;;;;;;;;;;;;;26.44;37.06;93143.16;4954709;28;8762;-38
2024/02/27 04:45:26;;;;;;;;;;;;;;;26.44;37.34;93145.94;4952057;28;8166;-38
2024/02/27 04:48:03;;;;;;;;;;;;;;;26.43;37.10;93144.44;4954108;28;7108;-38
2024/02/27 04:50:46;;;;;;;;;;;;;;;26.43;37.52;93131.41;4958510;28;7540;-38
2024/02/27 04:53:32;;;;;;;;;;;;;;;26.44;37.34;93123.88;4958845;28;8720;-38
2024/02/27 04:56:07;;;;;;;;;;;;;;;26.43;36.70;93127.91;4957140;28;6888;-42
2024/02/27 04:58:44;;;;;;;;;;;;;;;26.44;37.32;93129.38;4957760;28;9304;-42
2024/02/27 05:01:45;;;;;;;;;;;;;;;26.42;36.89;93127.19;4959528;28;9364;-42
2024/02/27 05:04:10;;;;;;;;;;;;;;;26.44;37.73;93151.44;4974213;28;7045;-43
2024/02/27 05:06:36;;;;;;;;;;;;;;;26.43;37.36;93152.72;4976337;28;8596;-43
2024/02/27 05:09:03;;;;;;;;;;;;;;;26.43;37.17;93160.97;4958717;28;7547;-43
2024/02/27 05:11:58;;;;;;;;;;;;;;;26.42;37.54;93174.06;4975606;28;8836;-42
2024/02/27 05:14:26;;;;;;;;;;;;;;;26.41;37.23;93172.56;5002498;28;7201;-42
2024/02/27 05:17:12;;;;;;;;;;;;;;;26.43;37.32;93183.78;5073703;28;8474;-42
2024/02/27 05:19:42;;;;;;;;;;;;;;;26.41;37.47;93185.59;5062624;28;7463;-43
2024/02/27 05:22:22;;;;;;;;;;;;;;;26.41;37.33;93191.88;5073930;28;7300;-41
2024/02/27 05:25:18;;;;;;;;;;;;;;;26.45;37.16;93188.75;5052604;28;7303;-43
2024/02/27 05:27:57;;;;;;;;;;;;;;;26.43;37.18;93183.78;5064830;28;7241;-42
2024/02/27 05:30:32;;;;;;;;;;;;;;;26.42;37.53;93182.31;5056655;28;7126;-43
2024/02/27 05:33:06;;;;;;;;;;;;;;;26.41;37.13;93180.84;5081012;28;9477;-42
2024/02/27 05:35:46;;;;;;;;;;;;;;;26.43;37.21;93189.31;5058376;28;7124;-43
2024/02/27 05:38:23;;;;;;;;;;;;;;;26.43;37.25;93194.06;5056305;28;9338;-42
2024/02/27 05:41:04;;;;;;;;;;;;;;;26.44;37.33;93196.31;5060218;28;7111;-43
2024/02/27 05:43:43;;;;;;;;;;;;;;;26.43;37.36;93202.34;5048888;28;9027;-45
2024/02/27 05:46:19;;;;;;;;;;;;;;;26.41;37.53;93196.63;5051388;28;8332;-42
2024/02/27 05:49:18;;;;;;;;;;;;;;;26.41;37.35;93196.63;5056380;28;7100;-46
2024/02/27 05:52:22;;;;;;;;;;;;;;;26.38;38.05;93195.69;5066434;28;7201;-43
2024/02/27 05:54:49;;;;;;;;;;;;;;;26.39;38.02;93199.19;5075657;28;7072;-43
2024/02/27 05:57:16;;;;;;;;;;;;;;;26.39;37.32;93193.69;5069143;28;7334;-42
2024/02/27 05:59:47;;;;;;;;;;;;;;;26.38;37.38;93203.25;5055024;28;9228;-43
2024/02/27 06:02:23;;;;;;;;;;;;;;;26.37;37.13;93197.00;5070863;28;9117;-40
2024/02/27 06:05:06;;;;;;;;;;;;;;;26.39;36.96;93193.69;5055705;28;7449;-39
2024/02/27 06:07:36;;;;;;;;;;;;;;;26.38;37.46;93203.25;5056037;28;6863;-40
2024/02/27 06:10:05;;;;;;;;;;;;;;;26.37;37.63;93201.78;5056261;28;7460;-40
2024/02/27 06:12:31;;;;;;;;;;;;;;;26.37;37.76;93199.00;5057988;28;7146;-41
2024/02/27 06:14:58;;;;;;;;;;;;;;;26.38;38.30;93201.22;5059870;28;7249;-40
2024/02/27 06:17:30;;;;;;;;;;;;;;;26.41;37.93;93207.66;5068624;28;7057;-40
2024/02/27 06:20:00;;;;;;;;;;;;;;;26.40;37.81;93217.22;5054072;28;7274;-40
2024/02/27 06:22:29;;;;;;;;;;;;;;;26.43;38.08;93221.66;5073935;28;7243;-39
2024/02/27 06:24:56;;;;;;;;;;;;;;;26.40;38.58;93212.47;5071614;28;7489;-40
2024/02/27 06:27:35;;;;;;;;;;;;;;;26.43;38.74;93230.66;5077013;28;6860;-40
2024/02/27 06:30:22;;;;;;;;;;;;;;;26.44;38.03;93234.16;5070382;28;8217;-40
2024/02/27 06:32:50;;;;;;;;;;;;;;;26.46;38.48;93239.88;5073347;28;7297;-40
2024/02/27 06:35:26;;;;;;;;;;;;;;;26.47;37.90;93238.59;5092843;28;7302;-40
2024/02/27 06:37:59;;;;;;;;;;;;;;;26.48;37.94;93229.03;5036372;28;9198;-39
2024/02/27 06:40:25;;;;;;;;;;;;;;;26.44;37.86;93234.16;5043035;28;7098;-40
2024/02/27 06:42:53;;;;;;;;;;;;;;;26.42;37.09;93247.75;5075162;28;7050;-40
2024/02/27 06:45:19;;;;;;;;;;;;;;;26.39;37.92;93244.06;5057459;28;7028;-41
2024/02/27 06:47:47;;;;;;;;;;;;;;;26.40;37.05;93253.06;5061746;28;7094;-40
2024/02/27 06:50:16;;;;;;;;;;;;;;;26.42;37.43;93258.78;5056359;28;6965;-40
2024/02/27 06:52:50;;;;;;;;;;;;;;;26.44;37.40;93264.50;5065434;28;7258;-41
2024/02/27 06:55:15;;;;;;;;;;;;;;;26.44;37.71;93276.25;5064396;28;9105;-40
2024/02/27 06:57:55;;;;;;;;;;;;;;;26.41;37.73;93268.31;5056023;28;8694;-40
2024/02/27 07:00:32;;;;;;;;;;;;;;;26.42;37.42;93272.56;5070418;28;7289;-40
2024/02/27 07:03:50;;;;;;;;;;;;;;;26.40;37.51;93264.84;5073967;28;8787;-40
2024/02/27 07:06:49;;;;;;;;;;;;;;;26.40;37.77;93283.41;5031656;28;9499;-39
2024/02/27 07:09:15;;;;;;;;;;;;;;;26.40;37.46;93292.41;4995510;28;7271;-40
2024/02/27 07:11:41;;;;;;;;;;;;;;;26.39;37.42;93292.94;5016999;28;6995;-40
2024/02/27 07:14:12;;;;;;;;;;;;;;;26.38;37.75;93292.19;5019130;28;6984;-43
2024/02/27 07:16:40;;;;;;;;;;;;;;;26.41;37.83;93291.13;5018063;28;7197;-42
2024/02/27 07:19:07;;;;;;;;;;;;;;;26.42;37.45;93295.38;5017896;28;7092;-42
2024/02/27 07:21:35;;;;;;;;;;;;;;;26.41;37.43;93291.13;5014266;28;7347;-42
2024/02/27 07:24:01;;;;;;;;;;;;;;;26.41;37.54;93301.41;5017335;28;8902;-41
2024/02/27 07:26:29;;;;;;;;;;;;;;;26.41;38.00;93309.69;5031768;28;8682;-44
2024/02/27 07:28:55;;;;;;;;;;;;;;;26.39;37.73;93309.47;5037718;28;9282;-42
2024/02/27 07:31:22;;;;;;;;;;;;;;;26.40;37.82;93316.50;5033529;28;9046;-42
2024/02/27 07:33:47;;;;;;;;;;;;;;;26.38;37.88;93313.53;5036879;28;9359;-43
2024/02/27 07:36:18;;;;;;;;;;;;;;;26.40;37.54;93316.50;5020802;28;8948;-42
2024/02/27 07:38:46;;;;;;;;;;;;;;;26.38;37.82;93319.75;5027773;28;7207;-42
2024/02/27 07:41:12;;;;;;;;;;;;;;;26.39;37.59;93315.00;5026613;28;7034;-44
2024/02/27 07:43:43;;;;;;;;;;;;;;;26.40;37.62;93328.25;5055770;28;7279;-43
2024/02/27 07:46:22;;;;;;;;;;;;;;;26.41;37.41;93337.25;5058603;28;7499;-42
2024/02/27 07:48:49;;;;;;;;;;;;;;;26.39;37.54;93326.03;5044755;28;7335;-42
2024/02/27 07:51:30;;;;;;;;;;;;;;;26.38;37.54;93333.56;5058881;28;7268;-42
2024/02/27 07:54:00;;;;;;;;;;;;;;;26.37;38.00;93328.59;5080473;28;7371;-42
2024/02/27 07:56:27;;;;;;;;;;;;;;;26.38;38.05;93325.28;5074251;28;8956;-42
2024/02/27 07:58:56;;;;;;;;;;;;;;;26.39;37.05;93318.50;5062539;28;7185;-41
2024/02/27 08:01:27;;;;;;;;;;;;;;;26.39;37.74;93312.25;5053106;28;7527;-43
2024/02/27 08:03:58;;;;;;;;;;;;;;;26.39;38.05;93315.00;5058882;28;7471;-42
2024/02/27 08:06:32;;;;;;;;;;;;;;;26.40;37.89;93316.50;5075016;28;9369;-42
2024/02/27 08:09:00;;;;;;;;;;;;;;;26.37;37.23;93306.53;5057643;28;7097;-42
2024/02/27 08:11:26;;;;;;;;;;;;;;;26.36;37.37;93300.28;5078228;28;7033;-42
2024/02/27 08:13:57;;;;;;;;;;;;;;;26.36;37.85;93311.28;5057359;28;7249;-43
2024/02/27 08:16:23;;;;;;;;;;;;;;;26.35;37.34;93301.56;5064830;28;7924;-43
2024/02/27 08:18:49;;;;;;;;;;;;;;;26.36;37.50;93294.75;5061189;28;9406;-42
2024/02/27 08:21:15;;;;;;;;;;;;;;;26.36;37.42;93294.03;5089946;28;7050;-42
2024/02/27 08:24:11;;;;;;;;;;;;;;;26.39;38.13;93295.69;5059745;28;9241;-38
2024/02/27 08:26:38;;;;;;;;;;;;;;;26.37;37.60;93296.25;5078068;28;7022;-38
2024/02/27 08:29:11;;;;;;;;;;;;;;;26.37;37.41;93290.00;5074225;28;7380;-38
2024/02/27 08:31:38;;;;;;;;;;;;;;;26.39;37.97;93288.16;5069430;28;7056;-38
2024/02/27 08:34:27;;;;;;;;;;;;;;;26.41;37.54;93290.38;5072709;28;7604;-38
2024/02/27 08:36:57;;;;;;;;;;;;;;;26.40;37.59;93295.19;5073112;28;7270;-38
2024/02/27 08:39:24;;;;;;;;;;;;;;;26.43;37.67;93293.31;5059061;28;9033;-38
2024/02/27 08:42:01;;;;;;;;;;;;;;;26.40;38.00;93291.66;5059631;28;7045;-38
2024/02/27 08:44:29;;;;;;;;;;;;;;;26.43;37.75;93298.84;5077779;28;6994;-38
2024/02/27 08:46:59;;;;;;;;;;;;;;;26.42;37.82;93305.66;5066288;28;9052;-39
2024/02/27 08:49:32;;;;;;;;;;;;;;;26.42;37.93;93302.91;5056450;28;9475;-39
2024/02/27 08:51:58;;;;;;;;;;;;;;;26.42;37.60;93303.63;5079124;28;9012;-39
2024/02/27 08:54:25;;;;;;;;;;;;;;;26.40;38.04;93288.91;5058861;28;7120;-38
2024/02/27 08:56:51;;;;;;;;;;;;;;;26.40;37.99;93300.69;5064638;28;7099;-38
2024/02/27 08:59:25;;;;;;;;;;;;;;;26.42;38.21;93302.91;5069525;28;7321;-38
2024/02/27 09:01:55;;;;;;;;;;;;;;;26.42;37.91;93311.16;5057811;28;7290;-39
2024/02/27 09:04:22;;;;;;;;;;;;;;;26.43;38.55;93318.16;5061727;28;7308;-38
2024/02/27 09:06:48;;;;;;;;;;;;;;;26.43;38.53;93312.63;5060932;28;7302;-39
2024/02/27 09:09:17;;;;;;;;;;;;;;;26.44;38.27;93300.34;5057344;28;7125;-38
2024/02/27 09:11:43;;;;;;;;;;;;;;;26.43;38.04;93312.63;5070149;28;7117;-39
2024/02/27 09:14:12;;;;;;;;;;;;;;;26.40;38.33;93308.97;5065208;28;7051;-38
2024/02/27 09:16:49;;;;;;;;;;;;;;;26.43;38.43;93309.88;5072850;28;7190;-39
2024/02/27 09:19:20;;;;;;;;;;;;;;;26.44;38.26;93322.38;5089813;28;9099;-38
2024/02/27 09:22:18;;;;;;;;;;;;;;;26.45;38.12;93326.59;5069212;28;8413;-39
2024/02/27 09:24:49;;;;;;;;;;;;;;;26.46;38.26;93325.34;5056767;28;7137;-38
2024/02/27 09:27:52;;;;;;;;;;;;;;;26.47;38.40;93341.34;5056871;28;7218;-38
2024/02/27 09:30:29;;;;;;;;;;;;;;;26.47;38.79;93337.88;4994264;28;7440;-38
2024/02/27 09:33:10;;;;;;;;;;;;;;;26.48;38.00;93340.06;4996715;28;7938;-38
2024/02/27 09:35:52;;;;;;;;;;;;;;;26.49;38.47;93338.06;4991280;28;7034;-38
2024/02/27 09:38:19;;;;;;;;;;;;;;;26.48;38.44;93350.34;4996410;28;9026;-38
2024/02/27 09:40:59;;;;;;;;;;;;;;;26.48;38.20;93353.84;4986606;28;7579;-39
2024/02/27 09:43:43;;;;;;;;;;;;;;;26.47;38.39;93368.19;5008504;28;9027;-38
2024/02/27 09:46:10;;;;;;;;;;;;;;;26.45;38.54;93367.97;5006573;28;7041;-38
2024/02/27 09:48:43;;;;;;;;;;;;;;;26.46;38.73;93372.22;4986048;28;9099;-38
2024/02/27 09:51:10;;;;;;;;;;;;;;;26.45;38.57;93367.97;4985028;28;8234;-38
2024/02/27 09:53:40;;;;;;;;;;;;;;;26.46;38.46;93366.69;5000720;28;7033;-39
2024/02/27 09:56:11;;;;;;;;;;;;;;;26.47;38.74;93376.47;5015479;28;9350;-40
2024/02/27 09:58:38;;;;;;;;;;;;;;;26.46;38.09;93372.22;5006058;28;7582;-39
2024/02/27 10:01:14;;;;;;;;;;;;;;;26.46;38.26;93372.22;5016129;28;7259;-39
2024/02/27 10:03:45;;;;;;;;;;;;;;;26.46;38.56;93377.72;5013260;28;7017;-38
2024/02/27 10:06:14;;;;;;;;;;;;;;;26.45;38.91;93377.00;5060321;28;7023;-38
2024/02/27 10:08:46;;;;;;;;;;;;;;;26.43;38.31;93381.56;5070281;28;9299;-39
2024/02/27 10:11:13;;;;;;;;;;;;;;;26.43;38.49;93382.31;5066580;28;7898;-39
2024/02/27 10:13:39;;;;;;;;;;;;;;;26.44;38.26;93383.06;5048364;28;7139;-38
2024/02/27 10:16:06;;;;;;;;;;;;;;;26.43;38.20;93384.31;5076086;28;8672;-38
2024/02/27 10:18:32;;;;;;;;;;;;;;;26.43;38.69;93378.81;5067269;28;7135;-39
2024/02/27 10:21:27;;;;;;;;;;;;;;;26.46;38.83;93381.22;5060279;28;7263;-38
2024/02/27 10:23:57;;;;;;;;;;;;;;;26.46;38.53;93378.47;5069338;28;7255;-38
2024/02/27 10:26:36;;;;;;;;;;;;;;;26.47;38.34;93384.75;5060467;28;7587;-39
2024/02/27 10:29:25;;;;;;;;;;;;;;;26.44;38.63;93391.31;5054213;28;7033;-38
2024/02/27 10:31:51;;;;;;;;;;;;;;;26.47;38.99;93401.28;5052405;28;7219;-39
2024/02/27 10:34:26;;;;;;;;;;;;;;;26.45;38.98;93396.28;5074160;28;7110;-38
2024/02/27 10:37:13;;;;;;;;;;;;;;;26.47;37.98;93398.53;5052269;28;7291;-39
2024/02/27 10:39:43;;;;;;;;;;;;;;;26.47;38.44;93402.00;5062771;28;7043;-40
2024/02/27 10:42:17;;;;;;;;;;;;;;;26.48;38.70;93400.00;5071550;28;7664;-38
2024/02/27 10:44:50;;;;;;;;;;;;;;;26.48;38.15;93406.25;5062929;28;7039;-40
2024/02/27 10:47:20;;;;;;;;;;;;;;;26.46;38.29;93408.06;5059886;28;7353;-41
2024/02/27 10:49:49;;;;;;;;;;;;;;;26.47;38.84;93404.03;5072638;28;7660;-40
2024/02/27 10:52:22;;;;;;;;;;;;;;;26.47;38.43;93396.47;5058707;28;9014;-40
2024/02/27 10:54:49;;;;;;;;;;;;;;;26.47;38.10;93402.00;5081722;28;7346;-40
2024/02/27 10:57:18;;;;;;;;;;;;;;;26.45;38.03;93401.81;5056472;28;8990;-41
2024/02/27 10:59:46;;;;;;;;;;;;;;;26.45;38.35;93401.06;5063304;28;9038;-40
2024/02/27 11:02:26;;;;;;;;;;;;;;;26.43;38.74;93398.09;5058783;28;7220;-40
2024/02/27 11:04:55;;;;;;;;;;;;;;;26.45;38.54;93401.06;5082116;28;7159;-41
2024/02/27 11:07:22;;;;;;;;;;;;;;;26.46;38.56;93402.56;5077452;28;7324;-40
2024/02/27 11:09:52;;;;;;;;;;;;;;;26.46;38.26;93397.78;5062189;28;7500;-40
2024/02/27 11:12:20;;;;;;;;;;;;;;;26.47;38.25;93393.00;5059069;28;7249;-40
2024/02/27 11:14:52;;;;;;;;;;;;;;;26.46;38.52;93388.75;5064748;28;7243;-40
2024/02/27 11:17:22;;;;;;;;;;;;;;;26.45;38.46;93377.00;5057180;28;9178;-40
2024/02/27 11:19:51;;;;;;;;;;;;;;;26.47;38.33;93366.16;5061084;28;9096;-40
2024/02/27 11:22:28;;;;;;;;;;;;;;;26.48;38.57;93362.13;5038073;28;7081;-40
2024/02/27 11:25:07;;;;;;;;;;;;;;;26.50;38.50;93362.31;5082454;28;7044;-40
2024/02/27 11:27:38;;;;;;;;;;;;;;;26.49;38.58;93369.09;5059762;28;7007;-41
2024/02/27 11:30:09;;;;;;;;;;;;;;;26.49;38.07;93371.88;5077526;28;8981;-40
2024/02/27 11:32:55;;;;;;;;;;;;;;;26.48;38.80;93372.41;5072920;28;6989;-42
2024/02/27 11:35:24;;;;;;;;;;;;;;;26.49;38.56;93373.91;5060173;28;7917;-40
2024/02/27 11:37:52;;;;;;;;;;;;;;;26.52;38.80;93381.06;5057093;28;9002;-40
2024/02/27 11:40:48;;;;;;;;;;;;;;;26.54;38.59;93389.53;5078013;28;7233;-42
2024/02/27 11:43:19;;;;;;;;;;;;;;;26.52;39.07;93392.84;5055175;28;7951;-40
2024/02/27 11:45:47;;;;;;;;;;;;;;;26.54;38.30;93395.06;5061446;28;7288;-39
2024/02/27 11:49:11;;;;;;;;;;;;;;;26.53;38.49;93394.34;5062996;28;7245;-40
2024/02/27 11:51:45;;;;;;;;;;;;;;;26.53;38.46;93397.09;5080192;28;7284;-42
2024/02/27 11:54:33;;;;;;;;;;;;;;;26.53;38.37;93399.13;5075964;28;9388;-41
2024/02/27 11:57:04;;;;;;;;;;;;;;;26.50;38.49;93400.94;5055049;28;7729;-42
2024/02/27 11:59:38;;;;;;;;;;;;;;;26.52;38.78;93397.63;5049687;28;9464;-41
2024/02/27 12:02:04;;;;;;;;;;;;;;;26.54;38.30;93406.09;5076241;28;8679;-41
2024/02/27 12:04:30;;;;;;;;;;;;;;;26.54;37.88;93395.81;5072423;28;7099;-41
2024/02/27 12:07:00;;;;;;;;;;;;;;;26.54;38.62;93398.56;5021414;28;7442;-41
2024/02/27 12:09:26;;;;;;;;;;;;;;;26.55;38.13;93402.81;5021977;28;7337;-40
2024/02/27 12:11:53;;;;;;;;;;;;;;;26.55;37.97;93393.78;5059065;28;7238;-41
2024/02/27 12:14:20;;;;;;;;;;;;;;;26.56;38.06;93398.00;5064767;28;7337;-41
2024/02/27 12:16:47;;;;;;;;;;;;;;;26.55;38.33;93391.78;5053432;28;8888;-40
2024/02/27 12:19:17;;;;;;;;;;;;;;;26.55;38.35;93389.03;5088305;28;7595;-41
2024/02/27 12:21:45;;;;;;;;;;;;;;;26.52;38.00;93387.34;5074860;28;7019;-41
2024/02/27 12:24:15;;;;;;;;;;;;;;;26.56;38.43;93387.72;5054134;28;7050;-41
2024/02/27 12:26:49;;;;;;;;;;;;;;;26.60;38.03;93385.38;5069186;28;9511;-41
2024/02/27 12:29:18;;;;;;;;;;;;;;;26.61;38.21;93394.38;5060491;28;7203;-41
2024/02/27 12:31:58;;;;;;;;;;;;;;;26.65;38.16;93394.78;5071000;28;7220;-41
2024/02/27 12:34:53;;;;;;;;;;;;;;;26.62;38.27;93385.56;5075555;28;9411;-40
2024/02/27 12:37:50;;;;;;;;;;;;;;;26.62;38.35;93382.09;5033493;28;7061;-42
2024/02/27 12:40:20;;;;;;;;;;;;;;;26.60;37.89;93382.59;5033831;28;7285;-40
2024/02/27 12:43:21;;;;;;;;;;;;;;;26.62;38.26;93371.78;5017380;28;7627;-41
2024/02/27 12:46:22;;;;;;;;;;;;;;;26.62;38.11;93369.00;5033782;28;7368;-43
2024/02/27 12:48:57;;;;;;;;;;;;;;;26.62;37.87;93365.53;5045288;28;7704;-42
2024/02/27 12:51:24;;;;;;;;;;;;;;;26.62;38.32;93371.78;5034525;28;9392;-41
2024/02/27 12:54:01;;;;;;;;;;;;;;;26.62;38.30;93366.25;5028950;28;7041;-41
2024/02/27 12:56:47;;;;;;;;;;;;;;;26.63;38.26;93370.50;5019175;28;7074;-41
2024/02/27 12:59:53;;;;;;;;;;;;;;;26.62;39.12;93360.72;5016517;28;9078;-42
2024/02/27 13:02:26;;;;;;;;;;;;;;;26.62;38.59;93366.25;4987409;28;7305;-41
2024/02/27 13:05:34;;;;;;;;;;;;;;;26.64;38.48;93368.50;4988860;28;7127;-41
2024/02/27 13:07:59;;;;;;;;;;;;;;;26.64;38.58;93368.50;4908849;29;9111;-40
2024/02/27 13:10:25;;;;;;;;;;;;;;;26.62;38.88;93371.06;4918037;29;9166;-40
2024/02/27 13:13:09;;;;;;;;;;;;;;;26.62;38.34;93365.53;4913077;29;7251;-41
2024/02/27 13:15:36;;;;;;;;;;;;;;;26.62;38.69;93371.78;4934407;28;9108;-41
2024/02/27 13:18:11;;;;;;;;;;;;;;;26.60;38.94;93370.84;4932152;28;9363;-40
2024/02/27 13:21:23;;;;;;;;;;;;;;;26.63;38.55;93373.25;4945847;28;7792;-40
2024/02/27 13:24:04;;;;;;;;;;;;;;;26.62;38.95;93368.28;4943907;28;9023;-42
2024/02/27 13:26:34;;;;;;;;;;;;;;;26.62;38.82;93371.06;4950737;28;7285;-41
2024/02/27 13:29:23;;;;;;;;;;;;;;;26.63;38.87;93378.03;4931854;28;7122;-40
2024/02/27 13:31:52;;;;;;;;;;;;;;;26.59;38.76;93372.13;4940949;28;7664;-40
2024/02/27 13:34:21;;;;;;;;;;;;;;;26.62;38.73;93371.06;4997572;28;7077;-42
2024/02/27 13:36:51;;;;;;;;;;;;;;;26.62;38.76;93376.56;5001376;28;7038;-41
2024/02/27 13:39:20;;;;;;;;;;;;;;;26.63;38.58;93378.03;4998745;28;9036;-40